map of AFZ home
AFZ - Airport
Location
City:  Sabzevar, Khorasan-e Razavi, Iran
ICAO:OIMS
IATA:AFZ

Details
Type:Airport (Aerodrome, Airfield)
Latitude:3610'05"N (36.168083)
Longitude:5735'43"E (57.595183)
Datum:WGS 1984
Elevation:3010 ft (917 m)
Variation:4.50E (WMM2015 magnetic declination)
0.06 annual change
Runways:1
Longest:10428 × 148 ft (3178 × 45 m), paved

Time
Time Zone:UTC+3:30 (DST+4:30)
Local Time:

Weather
METAR:OIMS 151400Z 36016KT 9999 SCT035 18/05 Q1022

Related Locations
Nearby:
Farthest:IPC: 11456 mi / 18436 km
Easter Island (Isla de Pascua, Rapa Nui) [Mataveri Intl], VS, CL

Find:

   beyond  
but within

Other Information
Maps:
NOTAMs:
Links:
Sources:

  
  • flag of Iran
  

Sectional Chart

Flight Planning
at skyvector.com

Satellite Image

Google Maps Satellite view

 

Copyright © 2004-2018 Karl L. Swartz. All rights reserved.
The Great Circle Mapper name and logo are trademarks of the Great Circle Mapper.
All other trademarks mentioned herein belong to their respective owners.
Please see credits for attibutions and further copyright information.

  Follow gcmap on Facebook Follow gcmap on Twitter Follow gcmap on Google+ GCmap on LinkedIn

hCard Microformat

Geo Microformat